createdAt,value
2018-10-07T00:00:11.403Z,75.70
2018-10-07T00:02:40.462Z,71.23
2018-10-07T00:05:08.916Z,74.27
2018-10-07T00:07:37.349Z,75.20
2018-10-07T00:10:05.881Z,73.37
2018-10-07T00:12:34.322Z,72.13
2018-10-07T00:15:02.818Z,69.63
2018-10-07T00:17:31.230Z,82.87
2018-10-07T00:19:59.657Z,70.30
2018-10-07T00:22:28.203Z,70.87
2018-10-07T00:24:56.644Z,71.23
2018-10-07T00:27:25.122Z,75.90
2018-10-07T00:29:53.632Z,71.97
2018-10-07T00:32:22.086Z,75.67
2018-10-07T00:34:50.550Z,70.90
2018-10-07T00:37:19.073Z,74.10
2018-10-07T00:39:47.500Z,61.53
2018-10-07T00:42:15.957Z,67.30
2018-10-07T00:44:44.506Z,63.67
2018-10-07T00:47:12.993Z,57.17
2018-10-07T00:49:41.479Z,58.00
2018-10-07T00:52:09.979Z,58.60
2018-10-07T00:54:38.452Z,56.83
2018-10-07T00:57:07.022Z,46.97
2018-10-07T00:59:35.453Z,46.43
2018-10-07T01:02:04.006Z,41.47
2018-10-07T01:04:32.454Z,41.77
2018-10-07T01:07:00.912Z,43.93
2018-10-07T01:09:29.450Z,38.50
2018-10-07T01:11:57.914Z,40.13
2018-10-07T01:14:26.426Z,33.23
2018-10-07T01:16:54.875Z,36.20
2018-10-07T01:19:23.343Z,28.03
2018-10-07T01:21:51.785Z,25.93
2018-10-07T01:24:20.439Z,25.63
2018-10-07T01:26:49.016Z,23.53
2018-10-07T01:29:17.470Z,22.63
2018-10-07T01:31:45.911Z,22.77
2018-10-07T01:34:14.510Z,24.43
2018-10-07T01:36:43.033Z,24.57
2018-10-07T01:39:12.260Z,26.03
2018-10-07T01:41:40.869Z,22.03
2018-10-07T01:44:09.433Z,20.60
2018-10-07T01:46:38.026Z,23.40
2018-10-07T01:49:06.551Z,24.10
2018-10-07T01:51:34.995Z,23.77
2018-10-07T01:54:03.567Z,24.70
2018-10-07T01:56:32.122Z,21.30
2018-10-07T01:59:00.712Z,21.37
2018-10-07T02:01:29.133Z,21.07
2018-10-07T02:03:57.584Z,18.83
2018-10-07T02:06:26.044Z,24.10
2018-10-07T02:08:54.462Z,18.60
2018-10-07T02:11:22.903Z,21.03
2018-10-07T02:13:51.457Z,19.57
2018-10-07T02:16:20.202Z,18.33
2018-10-07T02:18:48.678Z,13.90
2018-10-07T02:21:17.142Z,18.33
2018-10-07T02:23:45.585Z,16.00
2018-10-07T02:26:14.148Z,17.67
2018-10-07T02:28:42.726Z,14.60
2018-10-07T02:31:11.385Z,17.07
2018-10-07T02:33:39.826Z,17.93
2018-10-07T02:36:08.320Z,12.93
2018-10-07T02:38:38.198Z,14.43
2018-10-07T02:41:06.856Z,12.37
2018-10-07T02:43:35.442Z,12.80
2018-10-07T02:46:04.040Z,11.37
2018-10-07T02:48:32.532Z,13.87
2018-10-07T02:51:01.207Z,13.33
2018-10-07T02:53:29.823Z,11.70
2018-10-07T02:55:58.405Z,11.30
2018-10-07T02:58:27.791Z,13.40
2018-10-07T03:00:56.888Z,9.87
2018-10-07T03:03:25.520Z,9.17
2018-10-07T03:05:54.067Z,10.23
2018-10-07T03:08:22.642Z,9.93
2018-10-07T03:10:51.318Z,9.87
2018-10-07T03:13:19.813Z,7.00
2018-10-07T03:15:48.429Z,9.23
2018-10-07T03:18:16.912Z,8.37
2018-10-07T03:20:45.356Z,8.13
2018-10-07T03:23:13.830Z,10.63
2018-10-07T03:25:42.394Z,7.07
2018-10-07T03:28:10.868Z,9.07
2018-10-07T03:30:39.290Z,7.53
2018-10-07T03:33:07.738Z,9.23
2018-10-07T03:35:36.162Z,8.97
2018-10-07T03:38:04.660Z,8.03
2018-10-07T03:40:33.377Z,9.00
2018-10-07T03:43:01.800Z,9.80
2018-10-07T03:45:30.254Z,7.60
2018-10-07T03:47:58.830Z,8.60
2018-10-07T03:50:27.254Z,7.73
2018-10-07T03:52:55.778Z,9.97
2018-10-07T03:55:24.252Z,10.80
2018-10-07T03:57:52.688Z,9.83
2018-10-07T04:00:21.243Z,7.90
2018-10-07T04:02:49.706Z,8.30
2018-10-07T04:05:18.324Z,9.27
2018-10-07T04:07:46.879Z,8.50
2018-10-07T04:10:15.370Z,7.27
2018-10-07T04:12:43.862Z,5.43
2018-10-07T04:15:12.288Z,7.47
2018-10-07T04:17:40.720Z,6.40
2018-10-07T04:20:09.142Z,6.67
2018-10-07T04:22:37.558Z,6.57
2018-10-07T04:25:06.216Z,8.50
2018-10-07T04:27:34.634Z,7.43
2018-10-07T04:30:03.085Z,5.77
2018-10-07T04:32:31.558Z,6.30
2018-10-07T04:34:59.957Z,6.67
2018-10-07T04:37:28.477Z,7.13
2018-10-07T04:39:57.046Z,6.97
2018-10-07T04:42:25.417Z,6.10
2018-10-07T04:44:53.981Z,5.70
2018-10-07T04:47:22.567Z,7.40
2018-10-07T04:49:51.069Z,8.40
2018-10-07T04:52:19.513Z,8.43
2018-10-07T04:54:47.990Z,7.93
2018-10-07T04:57:16.533Z,10.03
2018-10-07T04:59:45.941Z,8.27
2018-10-07T05:02:14.439Z,7.70
2018-10-07T05:04:42.991Z,6.37
2018-10-07T05:07:11.615Z,8.67
2018-10-07T05:09:40.131Z,7.77
2018-10-07T05:12:09.495Z,8.80
2018-10-07T05:14:38.348Z,8.70
2018-10-07T05:17:07.078Z,8.53
2018-10-07T05:19:35.623Z,7.40
2018-10-07T05:22:04.207Z,8.43
2018-10-07T05:24:32.712Z,6.63
2018-10-07T05:27:01.282Z,9.30
2018-10-07T05:29:29.709Z,8.73
2018-10-07T05:31:58.159Z,9.73
2018-10-07T05:34:26.826Z,9.83
2018-10-07T05:36:55.356Z,9.60
2018-10-07T05:39:23.800Z,9.30
2018-10-07T05:41:52.350Z,8.60
2018-10-07T05:44:20.803Z,9.23
2018-10-07T05:46:49.275Z,8.53
2018-10-07T05:49:17.728Z,8.90
2018-10-07T05:51:46.206Z,8.33
2018-10-07T05:54:14.669Z,8.10
2018-10-07T05:56:43.137Z,6.30
2018-10-07T05:59:11.781Z,7.13
2018-10-07T06:01:41.907Z,6.67
2018-10-07T06:04:20.396Z,6.53
2018-10-07T06:06:49.021Z,6.73
2018-10-07T06:09:24.659Z,5.87
2018-10-07T06:11:53.629Z,6.73
2018-10-07T06:14:43.821Z,7.27
2018-10-07T06:17:13.797Z,6.73
2018-10-07T06:19:42.290Z,8.07
2018-10-07T06:22:10.890Z,7.23
2018-10-07T06:24:39.416Z,5.97
2018-10-07T06:27:07.946Z,6.90
2018-10-07T06:29:36.503Z,6.43
2018-10-07T06:32:05.183Z,8.13
2018-10-07T06:34:33.762Z,6.93
2018-10-07T06:37:02.393Z,7.43
2018-10-07T06:39:30.992Z,6.57
2018-10-07T06:41:59.583Z,6.63
2018-10-07T06:44:28.683Z,6.77
2018-10-07T06:46:57.208Z,7.37
2018-10-07T06:49:25.729Z,5.30
2018-10-07T06:51:54.347Z,5.40
2018-10-07T06:54:22.929Z,3.73
2018-10-07T06:56:51.593Z,3.47
2018-10-07T06:59:20.054Z,6.10
2018-10-07T07:01:49.499Z,3.83
2018-10-07T07:04:18.180Z,4.43
2018-10-07T07:06:46.658Z,5.67
2018-10-07T07:09:15.100Z,5.30
2018-10-07T07:11:43.534Z,4.40
2018-10-07T07:14:12.232Z,4.10
2018-10-07T07:16:40.764Z,4.50
2018-10-07T07:19:09.220Z,4.03
2018-10-07T07:21:37.858Z,5.27
2018-10-07T07:24:06.460Z,4.00
2018-10-07T07:26:35.147Z,3.90
2018-10-07T07:29:03.732Z,4.47
2018-10-07T07:31:32.269Z,2.90
2018-10-07T07:34:01.406Z,3.83
2018-10-07T07:36:30.076Z,3.87
2018-10-07T07:38:58.684Z,3.63
2018-10-07T07:41:27.350Z,3.40
2018-10-07T07:43:55.906Z,4.60
2018-10-07T07:46:24.438Z,3.87
2018-10-07T07:48:52.943Z,4.47
2018-10-07T07:51:21.462Z,2.10
2018-10-07T07:53:50.118Z,3.70
2018-10-07T07:56:18.972Z,3.13
2018-10-07T07:58:47.535Z,3.87
2018-10-07T08:01:16.779Z,3.40
2018-10-07T08:03:45.747Z,3.67
2018-10-07T08:06:14.201Z,6.50
2018-10-07T08:08:42.704Z,5.37
2018-10-07T08:11:12.062Z,4.30
2018-10-07T08:13:40.520Z,7.73
2018-10-07T08:16:09.197Z,2.37
2018-10-07T08:18:37.677Z,6.03
2018-10-07T08:21:06.145Z,3.07
2018-10-07T08:23:34.776Z,4.83
2018-10-07T08:26:03.413Z,3.60
2018-10-07T08:28:31.948Z,3.43
2018-10-07T08:31:00.590Z,3.77
2018-10-07T08:33:29.133Z,4.10
2018-10-07T08:35:57.596Z,3.00
2018-10-07T08:38:26.139Z,3.30
2018-10-07T08:40:54.579Z,4.00
2018-10-07T08:43:23.096Z,2.10
2018-10-07T08:45:51.943Z,3.00
2018-10-07T08:48:20.550Z,1.73
2018-10-07T08:50:49.003Z,3.17
2018-10-07T08:53:17.492Z,3.70
2018-10-07T08:55:46.520Z,2.70
2018-10-07T08:58:15.409Z,3.37
2018-10-07T09:00:43.881Z,4.60
2018-10-07T09:03:12.352Z,4.63
2018-10-07T09:05:40.840Z,4.03
2018-10-07T09:08:09.291Z,3.43
2018-10-07T09:10:37.915Z,5.07
2018-10-07T09:13:06.509Z,3.17
2018-10-07T09:15:35.317Z,2.33
2018-10-07T09:18:03.836Z,2.53
2018-10-07T09:20:32.366Z,2.63
2018-10-07T09:23:00.827Z,3.57
2018-10-07T09:25:29.327Z,5.07
2018-10-07T09:27:59.348Z,5.93
2018-10-07T09:30:29.099Z,2.30
2018-10-07T09:32:57.924Z,5.20
2018-10-07T09:35:26.344Z,4.00
2018-10-07T09:37:55.758Z,2.60
2018-10-07T09:40:24.289Z,2.57
2018-10-07T09:42:52.741Z,2.30
2018-10-07T09:45:21.329Z,3.50
2018-10-07T09:47:49.850Z,3.67
2018-10-07T09:50:18.438Z,3.33
2018-10-07T09:52:47.052Z,3.90
2018-10-07T09:55:15.639Z,4.57
2018-10-07T09:57:44.105Z,3.27
2018-10-07T10:00:12.698Z,1.57
2018-10-07T10:02:41.234Z,2.20
2018-10-07T10:05:09.705Z,2.20
2018-10-07T10:07:38.158Z,3.03
2018-10-07T10:10:06.651Z,2.23
2018-10-07T10:12:35.423Z,1.90
2018-10-07T10:15:04.125Z,4.67
2018-10-07T10:17:33.680Z,4.40
2018-10-07T10:20:04.820Z,4.00
2018-10-07T10:24:49.494Z,4.10
2018-10-07T10:28:26.425Z,3.37
2018-10-07T10:31:03.274Z,3.93
2018-10-07T10:33:35.488Z,1.53
2018-10-07T10:36:44.409Z,3.73
2018-10-07T10:39:21.060Z,3.27
2018-10-07T10:42:09.107Z,3.23
2018-10-07T10:44:46.685Z,2.70
2018-10-07T10:47:30.476Z,3.57
2018-10-07T10:52:15.034Z,2.43
2018-10-07T10:55:28.431Z,3.00
2018-10-07T11:14:56.947Z,2.17
2018-10-07T11:17:30.185Z,1.53
2018-10-07T11:20:25.233Z,2.53
2018-10-07T11:23:18.034Z,3.47
2018-10-07T11:25:57.349Z,3.87
2018-10-07T11:28:34.274Z,4.23
2018-10-07T11:33:29.173Z,3.70
2018-10-07T11:36:08.254Z,2.57
2018-10-07T11:39:17.930Z,3.47
2018-10-07T11:41:51.248Z,2.50
2018-10-07T11:44:31.191Z,2.17
2018-10-07T11:48:09.689Z,2.00
2018-10-07T11:52:56.475Z,2.87
2018-10-07T11:55:26.374Z,3.20
2018-10-07T11:57:55.159Z,3.07
2018-10-07T12:00:24.509Z,2.00
2018-10-07T12:02:53.249Z,3.27
2018-10-07T12:05:21.756Z,4.83
2018-10-07T12:07:50.278Z,5.33
2018-10-07T12:10:23.559Z,3.13
2018-10-07T12:12:52.392Z,2.47
2018-10-07T12:15:21.050Z,3.07
2018-10-07T12:17:49.937Z,3.97
2018-10-07T12:20:18.639Z,2.00
2018-10-07T12:22:47.345Z,2.23
2018-10-07T12:25:15.780Z,2.10
2018-10-07T12:27:44.605Z,3.83
2018-10-07T12:30:13.116Z,2.30
2018-10-07T12:32:41.812Z,3.80
2018-10-07T12:35:10.656Z,3.57
2018-10-07T12:37:39.104Z,2.60
2018-10-07T12:40:07.682Z,3.63
2018-10-07T12:49:24.032Z,2.13
2018-10-07T12:51:52.537Z,3.10
2018-10-07T12:54:21.090Z,2.17
2018-10-07T12:56:49.819Z,2.33
2018-10-07T12:59:18.585Z,3.60
2018-10-07T13:02:03.531Z,8.53
2018-10-07T13:04:32.469Z,3.43
2018-10-07T13:07:01.667Z,5.40
2018-10-07T13:09:31.034Z,2.73
2018-10-07T13:11:59.744Z,3.60
2018-10-07T13:14:28.420Z,3.77
2018-10-07T13:16:57.065Z,2.83
2018-10-07T13:19:25.655Z,3.50
2018-10-07T13:21:54.688Z,1.53
2018-10-07T13:24:23.491Z,3.10
2018-10-07T13:26:52.062Z,2.40
2018-10-07T13:29:20.545Z,2.10
2018-10-07T13:31:49.645Z,3.10
2018-10-07T13:34:18.110Z,2.27
2018-10-07T13:36:46.741Z,4.00
2018-10-07T13:39:15.225Z,1.73
2018-10-07T13:41:43.737Z,4.33
2018-10-07T13:44:12.408Z,3.30
2018-10-07T13:46:41.248Z,2.00
2018-10-07T13:49:09.799Z,2.87
2018-10-07T13:51:38.315Z,1.60
2018-10-07T13:54:07.189Z,3.27
2018-10-07T13:56:36.015Z,2.73
2018-10-07T13:59:04.498Z,2.43
2018-10-07T14:01:35.465Z,5.67
2018-10-07T14:04:04.308Z,3.87
2018-10-07T14:06:41.965Z,4.00
2018-10-07T14:09:15.899Z,1.87
2018-10-07T14:11:44.472Z,4.73
2018-10-07T14:14:13.195Z,3.93
2018-10-07T14:16:41.975Z,2.27
2018-10-07T14:19:10.683Z,5.33
2018-10-07T14:21:39.277Z,1.87
2018-10-07T14:24:07.891Z,2.63
2018-10-07T14:26:36.487Z,3.07
2018-10-07T14:29:05.211Z,3.13
2018-10-07T14:31:33.806Z,2.53
2018-10-07T14:34:02.489Z,5.43
2018-10-07T14:36:30.922Z,3.07
2018-10-07T14:38:59.395Z,4.83
2018-10-07T14:41:27.893Z,3.27
2018-10-07T14:43:57.290Z,5.03
2018-10-07T14:46:25.765Z,3.10
2018-10-07T14:48:54.238Z,3.37
2018-10-07T14:51:22.690Z,2.40
2018-10-07T14:53:51.162Z,3.37
2018-10-07T14:56:19.596Z,3.87
2018-10-07T14:58:48.097Z,4.63
2018-10-07T15:01:16.608Z,4.00
2018-10-07T15:03:45.043Z,1.83
2018-10-07T15:06:13.533Z,2.43
2018-10-07T15:08:41.985Z,4.50
2018-10-07T15:11:10.480Z,4.13
2018-10-07T15:13:38.993Z,2.33
2018-10-07T15:16:07.519Z,2.97
2018-10-07T15:18:35.998Z,3.23
2018-10-07T15:21:04.511Z,4.63
2018-10-07T15:23:33.078Z,2.73
2018-10-07T15:26:01.641Z,3.80
2018-10-07T15:28:30.070Z,4.80
2018-10-07T15:30:58.552Z,4.07
2018-10-07T15:33:27.029Z,3.77
2018-10-07T15:35:55.497Z,3.73
2018-10-07T15:38:23.974Z,2.63
2018-10-07T15:40:52.430Z,4.20
2018-10-07T15:43:20.853Z,3.40
2018-10-07T15:45:49.310Z,4.97
2018-10-07T15:48:17.762Z,3.87
2018-10-07T15:50:46.199Z,4.33
2018-10-07T15:53:14.646Z,2.50
2018-10-07T15:55:43.209Z,4.17
2018-10-07T15:58:11.665Z,3.20
2018-10-07T16:00:40.124Z,3.23
2018-10-07T16:03:08.632Z,2.43
2018-10-07T16:05:37.107Z,9.30
2018-10-07T16:08:05.670Z,3.70
2018-10-07T16:10:34.173Z,4.57
2018-10-07T16:13:02.612Z,2.63
2018-10-07T16:15:31.079Z,2.87
2018-10-07T16:17:59.657Z,2.60
2018-10-07T16:20:28.155Z,3.03
2018-10-07T16:22:56.916Z,3.33
2018-10-07T16:25:25.500Z,4.70
2018-10-07T16:27:53.964Z,3.80
2018-10-07T16:30:22.402Z,4.60
2018-10-07T16:32:50.876Z,2.33
2018-10-07T16:35:20.068Z,4.50
2018-10-07T16:37:48.659Z,4.50
2018-10-07T16:40:17.144Z,5.77
2018-10-07T16:42:45.612Z,4.13
2018-10-07T16:45:14.203Z,3.10
2018-10-07T16:47:42.718Z,4.27
2018-10-07T16:50:11.221Z,4.57
2018-10-07T16:52:39.699Z,4.77
2018-10-07T16:55:08.281Z,5.40
2018-10-07T16:57:36.864Z,5.07
2018-10-07T17:00:05.326Z,3.87
2018-10-07T17:02:33.772Z,5.53
2018-10-07T17:05:02.730Z,3.00
2018-10-07T17:07:31.233Z,3.50
2018-10-07T17:09:59.817Z,2.60
2018-10-07T17:12:28.375Z,4.13
2018-10-07T17:14:56.931Z,5.83
2018-10-07T17:17:25.428Z,4.07
2018-10-07T17:19:54.022Z,3.83
2018-10-07T17:22:22.737Z,4.53
2018-10-07T17:24:51.176Z,4.63
2018-10-07T17:27:19.645Z,4.27
2018-10-07T17:29:48.092Z,3.13
2018-10-07T17:32:16.583Z,5.13
2018-10-07T17:34:45.020Z,4.43
2018-10-07T17:37:13.461Z,2.80
2018-10-07T17:39:41.975Z,3.30
2018-10-07T17:42:10.479Z,5.00
2018-10-07T17:44:38.945Z,3.30
2018-10-07T17:47:07.458Z,6.00
2018-10-07T17:49:35.909Z,5.10
2018-10-07T17:52:04.950Z,6.67
2018-10-07T17:54:33.510Z,4.73
2018-10-07T17:57:01.947Z,6.40
2018-10-07T17:59:30.518Z,5.13
2018-10-07T18:01:59.019Z,5.30
2018-10-07T18:04:27.483Z,5.67
2018-10-07T18:06:55.971Z,6.67
2018-10-07T18:09:24.409Z,5.30
2018-10-07T18:11:53.397Z,5.97
2018-10-07T18:14:21.852Z,5.97
2018-10-07T18:16:52.136Z,3.97
2018-10-07T18:19:20.745Z,6.57
2018-10-07T18:21:49.347Z,3.20
2018-10-07T18:24:17.779Z,2.77
2018-10-07T18:26:46.237Z,3.90
2018-10-07T18:29:14.736Z,3.67
2018-10-07T18:31:43.805Z,5.30
2018-10-07T18:34:12.286Z,3.17
2018-10-07T18:36:40.793Z,6.77
2018-10-07T18:39:09.666Z,4.63
2018-10-07T18:41:39.171Z,4.03
2018-10-07T18:44:07.986Z,3.43
2018-10-07T18:46:36.551Z,6.60
2018-10-07T18:49:06.039Z,4.83
2018-10-07T18:51:34.493Z,5.53
2018-10-07T18:54:03.013Z,5.33
2018-10-07T18:56:31.679Z,7.53
2018-10-07T18:59:00.185Z,5.40
2018-10-07T19:01:28.693Z,4.90
2018-10-07T19:03:57.117Z,5.37
2018-10-07T19:06:25.546Z,4.10
2018-10-07T19:08:54.076Z,5.23
2018-10-07T19:11:22.535Z,4.87
2018-10-07T19:13:51.076Z,5.03
2018-10-07T19:16:19.588Z,3.87
2018-10-07T19:18:48.129Z,4.43
2018-10-07T19:21:16.628Z,3.70
2018-10-07T19:23:45.178Z,6.03
2018-10-07T19:26:13.798Z,4.93
2018-10-07T19:28:42.261Z,4.67
2018-10-07T19:31:10.739Z,5.00
2018-10-07T19:33:39.430Z,10.83
2018-10-07T19:36:08.015Z,7.57
2018-10-07T19:38:36.550Z,6.77
2018-10-07T19:41:05.049Z,4.67
2018-10-07T19:43:33.542Z,5.20
2018-10-07T19:46:02.018Z,5.67
2018-10-07T19:48:30.460Z,5.33
2018-10-07T19:50:58.891Z,6.80
2018-10-07T19:53:27.467Z,6.00
2018-10-07T19:55:56.042Z,5.20
2018-10-07T19:58:24.539Z,4.90
2018-10-07T20:00:53.152Z,5.27
2018-10-07T20:03:22.621Z,3.87
2018-10-07T20:05:51.101Z,5.53
2018-10-07T20:08:19.566Z,4.47
2018-10-07T20:10:48.058Z,5.50
2018-10-07T20:13:16.541Z,5.47
2018-10-07T20:15:45.061Z,7.13
2018-10-07T20:18:14.078Z,6.53
2018-10-07T20:20:42.841Z,6.37
2018-10-07T20:23:11.413Z,4.90
2018-10-07T20:25:39.977Z,5.40
2018-10-07T20:28:08.429Z,8.03
2018-10-07T20:30:37.098Z,8.57
2018-10-07T20:33:05.523Z,7.70
2018-10-07T20:35:33.949Z,7.83
2018-10-07T20:38:02.434Z,5.80
2018-10-07T20:40:30.939Z,6.70
2018-10-07T20:42:59.501Z,6.20
2018-10-07T20:45:28.057Z,7.80
2018-10-07T20:47:56.573Z,7.90
2018-10-07T20:50:25.339Z,5.03
2018-10-07T20:52:53.482Z,4.97
2018-10-07T20:55:22.081Z,6.63
2018-10-07T20:57:50.555Z,7.80
2018-10-07T21:00:19.172Z,5.33
2018-10-07T21:02:47.683Z,5.80
2018-10-07T21:05:16.075Z,7.40
2018-10-07T21:07:44.531Z,7.53
2018-10-07T21:10:12.972Z,4.83
2018-10-07T21:12:41.411Z,4.93
2018-10-07T21:15:09.873Z,6.10
2018-10-07T21:17:38.347Z,5.13
2018-10-07T21:20:06.919Z,4.17
2018-10-07T21:22:35.822Z,6.67
2018-10-07T21:25:05.315Z,4.60
2018-10-07T21:27:33.914Z,5.40
2018-10-07T21:30:02.751Z,6.60
2018-10-07T21:32:31.351Z,4.97
2018-10-07T21:34:59.807Z,7.50
2018-10-07T21:37:28.275Z,6.53
2018-10-07T21:39:56.741Z,8.83
2018-10-07T21:42:25.163Z,5.73
2018-10-07T21:44:53.599Z,5.40
2018-10-07T21:47:22.031Z,5.73
2018-10-07T21:49:50.481Z,4.57
2018-10-07T21:52:19.071Z,4.77
2018-10-07T21:54:47.497Z,5.50
2018-10-07T21:57:15.983Z,8.03
2018-10-07T21:59:44.440Z,7.03
2018-10-07T22:02:13.209Z,7.83
2018-10-07T22:04:41.769Z,6.50
2018-10-07T22:07:10.844Z,7.37
2018-10-07T22:09:39.293Z,8.87
2018-10-07T22:12:07.885Z,6.87
2018-10-07T22:14:36.423Z,7.13
2018-10-07T22:17:04.920Z,8.37
2018-10-07T22:19:33.336Z,5.03
2018-10-07T22:22:01.952Z,6.97
2018-10-07T22:24:31.198Z,8.70
2018-10-07T22:26:59.732Z,6.87
2018-10-07T22:29:28.142Z,6.03
2018-10-07T22:31:56.560Z,6.37
2018-10-07T22:34:25.055Z,5.50
2018-10-07T22:36:53.497Z,8.17
2018-10-07T22:39:21.999Z,9.70
2018-10-07T22:41:50.589Z,6.70
2018-10-07T22:44:19.262Z,5.77
2018-10-07T22:46:47.899Z,9.53
2018-10-07T22:49:16.469Z,8.40
2018-10-07T22:51:44.972Z,9.50
2018-10-07T22:54:13.420Z,8.40
2018-10-07T22:56:41.858Z,8.97
2018-10-07T22:59:10.366Z,7.30
2018-10-07T23:01:38.804Z,7.33
2018-10-07T23:04:07.233Z,6.00
2018-10-07T23:06:35.685Z,8.77
2018-10-07T23:09:06.985Z,9.17
2018-10-07T23:11:35.546Z,8.40
2018-10-07T23:14:04.201Z,7.23
2018-10-07T23:16:32.698Z,8.20
2018-10-07T23:19:01.205Z,8.40
2018-10-07T23:21:29.711Z,8.27
2018-10-07T23:23:58.147Z,9.63
2018-10-07T23:26:26.645Z,7.07
2018-10-07T23:28:55.068Z,8.13
2018-10-07T23:31:23.525Z,8.90
2018-10-07T23:33:52.118Z,8.00
2018-10-07T23:36:20.841Z,6.93
2018-10-07T23:38:49.269Z,8.17
2018-10-07T23:41:17.764Z,6.83
2018-10-07T23:43:46.532Z,7.97
2018-10-07T23:46:15.020Z,9.33
2018-10-07T23:48:43.534Z,8.90
2018-10-07T23:51:11.956Z,8.70
2018-10-07T23:53:40.537Z,6.23
2018-10-07T23:56:09.022Z,8.97
2018-10-07T23:58:37.444Z,8.27
